PATA/TAL METAR and TAF weather

Enter ICAO airport designator
Station Type Date Time Source
PATA METAR 2019/10/23 02:52 UTC NOAA

PATA 230252Z 07003KT 10SM FEW019 OVC030 01/M02 A2991 RMK AO2 SLP134 T00061022 50000 $


Station Type Date Time Source
PATA Decoded METAR 2019/10/23 02:52 UTC NOAA

TANANA CALHOUN MEMORIAL AIRPORT , AK, United States (PATA) 65-10N 152-06W 67M
Oct 22, 2019 - 10:52 PM EDT / 2019.10.23 0252 UTC
Wind: from the ENE (070 degrees) at 3 MPH (3 KT):0
Visibility: 10 mile(s):0
Sky conditions: overcast
Temperature: 33.1 F (0.6 C)
Dew Point: 28.0 F (-2.2 C)
Relative Humidity: 81%
Pressure (altimeter): 29.91 in. Hg (1012 hPa)
Pressure tendency: 0.00 inches (0.0 hPa) higher than three hours ago
ob: PATA 230252Z 07003KT 10SM FEW019 OVC030 01/M02 A2991 RMK AO2 SLP134 T00061022 50000
cycle: 3

Station Type Date Time Source
PATA TAF 2019/10/22 21:51 UTC NOAA

TAF
AMD PATA 222049Z 2221/2318 09003KT 2SM -SN BR SCT026 OVC040
FM230000 08006KT P6SM VCSH SCT015 OVC025
FM231400 08012G20KT P6SM BKN100

Example: see airport list